createdAt,value
2019-05-06T00:00:13.963Z,7.30
2019-05-06T00:02:17.758Z,7.20
2019-05-06T00:04:21.405Z,7.20
2019-05-06T00:06:24.874Z,7.20
2019-05-06T00:08:28.417Z,7.20
2019-05-06T00:10:35.189Z,7.20
2019-05-06T00:12:38.799Z,7.20
2019-05-06T00:14:43.636Z,7.20
2019-05-06T00:16:48.129Z,7.10
2019-05-06T00:18:53.836Z,7.10
2019-05-06T00:20:57.606Z,7.00
2019-05-06T00:23:14.059Z,7.10
2019-05-06T00:25:34.860Z,7.00
2019-05-06T00:27:40.092Z,7.00
2019-05-06T00:29:46.695Z,7.00
2019-05-06T00:31:49.109Z,7.00
2019-05-06T00:33:54.053Z,7.00
2019-05-06T00:36:00.483Z,7.00
2019-05-06T00:38:04.465Z,7.00
2019-05-06T00:40:14.130Z,7.00
2019-05-06T00:42:21.761Z,7.00
2019-05-06T00:44:25.288Z,7.00
2019-05-06T00:46:28.821Z,7.00
2019-05-06T00:48:34.096Z,7.00
2019-05-06T00:50:39.421Z,7.00
2019-05-06T00:52:44.712Z,6.90
2019-05-06T00:54:48.830Z,6.90
2019-05-06T00:56:54.089Z,6.90
2019-05-06T00:58:57.772Z,7.00
2019-05-06T01:01:01.309Z,7.00
2019-05-06T01:03:05.754Z,6.90
2019-05-06T01:05:09.525Z,6.90
2019-05-06T01:07:14.015Z,6.90
2019-05-06T01:09:19.237Z,6.90
2019-05-06T01:11:23.889Z,6.90
2019-05-06T01:13:38.089Z,6.90
2019-05-06T01:15:43.937Z,6.90
2019-05-06T01:17:47.544Z,6.90
2019-05-06T01:19:51.104Z,6.80
2019-05-06T01:21:55.709Z,6.80
2019-05-06T01:23:59.537Z,6.90
2019-05-06T01:26:04.198Z,6.80
2019-05-06T01:28:07.893Z,6.80
2019-05-06T01:30:13.738Z,6.80
2019-05-06T01:32:17.229Z,6.80
2019-05-06T01:34:20.764Z,6.80
2019-05-06T01:36:24.963Z,6.80
2019-05-06T01:38:33.927Z,6.80
2019-05-06T01:40:39.312Z,6.70
2019-05-06T01:42:47.681Z,6.70
2019-05-06T01:44:51.225Z,6.70
2019-05-06T01:46:55.010Z,6.70
2019-05-06T01:48:58.641Z,6.70
2019-05-06T01:51:03.521Z,6.60
2019-05-06T01:53:07.144Z,6.60
2019-05-06T01:55:14.243Z,6.60
2019-05-06T01:57:17.860Z,6.60
2019-05-06T01:59:21.429Z,6.60
2019-05-06T02:01:25.545Z,6.60
2019-05-06T02:03:29.086Z,6.60
2019-05-06T02:05:33.683Z,6.60
2019-05-06T02:07:37.397Z,6.60
2019-05-06T02:09:40.859Z,6.60
2019-05-06T02:11:47.653Z,6.60
2019-05-06T02:13:49.782Z,6.70
2019-05-06T02:15:54.731Z,6.70
2019-05-06T02:17:58.672Z,6.60
2019-05-06T02:20:04.178Z,6.60
2019-05-06T02:22:10.352Z,6.70
2019-05-06T02:24:24.758Z,6.60
2019-05-06T02:26:28.630Z,6.60
2019-05-06T02:28:34.367Z,6.60
2019-05-06T02:30:48.315Z,6.60
2019-05-06T02:32:59.514Z,6.60
2019-05-06T02:35:08.371Z,6.60
2019-05-06T02:37:14.724Z,6.70
2019-05-06T02:39:18.540Z,6.60
2019-05-06T02:41:23.229Z,6.60
2019-05-06T02:43:26.975Z,6.60
2019-05-06T02:45:33.192Z,6.60
2019-05-06T02:47:53.968Z,6.60
2019-05-06T02:50:05.651Z,6.60
2019-05-06T02:52:09.184Z,6.50
2019-05-06T02:54:13.511Z,6.50
2019-05-06T02:56:17.542Z,6.50
2019-05-06T02:58:23.608Z,6.50
2019-05-06T03:00:26.261Z,6.50
2019-05-06T03:02:39.949Z,6.50
2019-05-06T03:04:35.926Z,6.50
2019-05-06T03:06:39.621Z,6.40
2019-05-06T03:08:43.752Z,6.50
2019-05-06T03:10:47.416Z,6.50
2019-05-06T03:12:53.741Z,6.50
2019-05-06T03:14:56.446Z,6.50
2019-05-06T03:17:03.281Z,6.40
2019-05-06T03:19:05.486Z,6.40
2019-05-06T03:21:13.787Z,6.40
2019-05-06T03:23:17.837Z,6.40
2019-05-06T03:25:24.043Z,6.40
2019-05-06T03:27:28.117Z,6.40
2019-05-06T03:29:33.373Z,6.40
2019-05-06T03:31:37.158Z,6.40
2019-05-06T03:33:58.496Z,6.40
2019-05-06T03:36:00.749Z,6.40
2019-05-06T03:37:53.352Z,6.30
2019-05-06T03:39:57.094Z,6.40
2019-05-06T03:42:00.645Z,6.40
2019-05-06T03:44:04.598Z,6.30
2019-05-06T03:46:18.311Z,6.30
2019-05-06T03:48:35.638Z,6.30
2019-05-06T03:50:39.189Z,6.30
2019-05-06T03:52:44.251Z,6.30
2019-05-06T03:54:48.301Z,6.30
2019-05-06T03:56:53.808Z,6.30
2019-05-06T03:58:59.005Z,6.40
2019-05-06T04:01:03.788Z,6.40
2019-05-06T04:03:07.689Z,6.40
2019-05-06T04:05:13.253Z,6.40
2019-05-06T04:07:18.034Z,6.40
2019-05-06T04:09:23.991Z,6.50
2019-05-06T04:11:27.443Z,6.50
2019-05-06T04:13:33.355Z,6.60
2019-05-06T04:15:48.331Z,6.60
2019-05-06T04:17:59.690Z,6.50
2019-05-06T04:20:05.512Z,6.60
2019-05-06T04:22:26.858Z,6.60
2019-05-06T04:24:37.880Z,6.60
2019-05-06T04:26:46.407Z,6.60
2019-05-06T04:28:53.232Z,6.60
2019-05-06T04:30:55.580Z,6.50
2019-05-06T04:32:59.281Z,6.60
2019-05-06T04:35:04.421Z,6.50
2019-05-06T04:37:08.727Z,6.50
2019-05-06T04:39:13.271Z,6.50
2019-05-06T04:41:17.105Z,6.60
2019-05-06T04:43:26.299Z,6.60
2019-05-06T04:45:25.938Z,6.70
2019-05-06T04:47:32.620Z,6.70
2019-05-06T04:49:35.426Z,6.80
2019-05-06T04:51:38.885Z,6.80
2019-05-06T04:53:44.052Z,6.80
2019-05-06T04:55:48.457Z,6.80
2019-05-06T04:57:53.611Z,6.80
2019-05-06T04:59:57.735Z,6.80
2019-05-06T05:02:02.670Z,6.80
2019-05-06T05:04:23.022Z,6.80
2019-05-06T05:06:13.619Z,6.70
2019-05-06T05:08:17.521Z,6.70
2019-05-06T05:10:23.251Z,6.60
2019-05-06T05:12:33.592Z,6.70
2019-05-06T05:14:38.704Z,6.70
2019-05-06T05:16:44.045Z,6.80
2019-05-06T05:18:49.272Z,6.90
2019-05-06T05:20:53.769Z,6.80
2019-05-06T05:22:59.477Z,6.80
2019-05-06T05:25:03.667Z,6.80
2019-05-06T05:27:07.482Z,6.80
2019-05-06T05:29:12.347Z,6.80
2019-05-06T05:31:16.438Z,6.90
2019-05-06T05:33:22.346Z,6.90
2019-05-06T05:35:25.926Z,6.80
2019-05-06T05:37:29.450Z,6.90
2019-05-06T05:39:33.444Z,6.90
2019-05-06T05:41:37.626Z,6.90
2019-05-06T05:43:43.172Z,6.90
2019-05-06T05:45:47.650Z,7.00
2019-05-06T05:47:52.627Z,7.10
2019-05-06T05:50:09.692Z,7.20
2019-05-06T05:52:14.294Z,7.10
2019-05-06T05:54:18.393Z,7.10
2019-05-06T05:56:23.957Z,7.10
2019-05-06T05:58:27.642Z,7.20
2019-05-06T06:00:33.000Z,7.30
2019-05-06T06:02:36.531Z,7.30
2019-05-06T06:04:53.452Z,7.40
2019-05-06T06:06:45.768Z,7.30
2019-05-06T06:08:52.102Z,7.30
2019-05-06T06:10:56.749Z,7.40
2019-05-06T06:13:02.156Z,7.30
2019-05-06T06:15:09.698Z,7.30
2019-05-06T06:17:32.562Z,7.30
2019-05-06T06:19:37.877Z,7.40
2019-05-06T06:21:46.471Z,7.30
2019-05-06T06:23:52.872Z,7.30
2019-05-06T06:25:57.990Z,7.30
2019-05-06T06:28:02.670Z,7.30
2019-05-06T06:30:07.224Z,7.20
2019-05-06T06:32:23.045Z,7.20
2019-05-06T06:34:37.796Z,7.20
2019-05-06T06:36:48.897Z,7.30
2019-05-06T06:38:54.248Z,7.20
2019-05-06T06:40:58.005Z,7.30
2019-05-06T06:43:03.285Z,7.40
2019-05-06T06:45:09.061Z,7.40
2019-05-06T06:47:13.116Z,7.40
2019-05-06T06:49:16.761Z,7.30
2019-05-06T06:51:20.230Z,7.30
2019-05-06T06:53:24.210Z,7.30
2019-05-06T06:55:27.705Z,7.40
2019-05-06T06:57:49.120Z,7.60
2019-05-06T06:59:55.195Z,7.70
2019-05-06T07:02:03.765Z,7.70
2019-05-06T07:04:11.225Z,7.80
2019-05-06T07:06:15.868Z,7.80
2019-05-06T07:08:32.125Z,7.90
2019-05-06T07:10:43.257Z,8.00
2019-05-06T07:12:46.820Z,8.10
2019-05-06T07:14:52.350Z,8.00
2019-05-06T07:16:57.396Z,8.10
2019-05-06T07:19:02.982Z,8.10
2019-05-06T07:21:08.983Z,8.20
2019-05-06T07:23:29.505Z,8.00
2019-05-06T07:25:33.699Z,7.90
2019-05-06T07:27:37.945Z,7.90
2019-05-06T07:29:48.130Z,7.90
2019-05-06T07:31:47.177Z,8.10
2019-05-06T07:33:52.249Z,8.10
2019-05-06T07:35:56.826Z,8.10
2019-05-06T07:38:02.376Z,8.20
2019-05-06T07:40:08.458Z,8.10
2019-05-06T07:42:16.173Z,8.20
2019-05-06T07:44:24.755Z,8.20
2019-05-06T07:46:30.246Z,8.30
2019-05-06T07:48:33.706Z,8.30
2019-05-06T07:50:37.157Z,8.30
2019-05-06T07:52:42.574Z,8.30
2019-05-06T07:54:46.111Z,8.20
2019-05-06T07:56:52.712Z,8.30
2019-05-06T07:59:07.909Z,8.30
2019-05-06T08:01:13.613Z,8.30
2019-05-06T08:03:17.020Z,8.30
2019-05-06T08:05:22.443Z,8.40
2019-05-06T08:07:25.733Z,8.50
2019-05-06T08:09:29.197Z,8.60
2019-05-06T08:11:32.950Z,8.70
2019-05-06T08:13:36.573Z,8.80
2019-05-06T08:15:42.094Z,8.90
2019-05-06T08:17:45.641Z,8.80
2019-05-06T08:19:49.442Z,8.80
2019-05-06T08:21:54.661Z,8.90
2019-05-06T08:23:58.514Z,9.10
2019-05-06T08:26:10.080Z,9.20
2019-05-06T08:28:07.520Z,9.20
2019-05-06T08:30:12.883Z,9.20
2019-05-06T08:32:16.693Z,9.30
2019-05-06T08:34:22.481Z,9.30
2019-05-06T08:36:42.739Z,9.40
2019-05-06T08:39:02.900Z,9.50
2019-05-06T08:41:06.708Z,9.60
2019-05-06T08:43:12.904Z,9.60
2019-05-06T08:45:16.117Z,9.60
2019-05-06T08:47:22.356Z,9.60
2019-05-06T08:49:26.377Z,9.60
2019-05-06T08:51:47.100Z,9.70
2019-05-06T08:53:55.520Z,9.70
2019-05-06T08:56:03.176Z,9.70
2019-05-06T08:58:07.118Z,9.60
2019-05-06T09:00:12.796Z,9.70
2019-05-06T09:02:16.862Z,9.70
2019-05-06T09:04:22.803Z,9.70
2019-05-06T09:06:30.276Z,9.80
2019-05-06T09:08:32.421Z,10.00
2019-05-06T09:10:36.122Z,10.10
2019-05-06T09:12:39.588Z,10.00
2019-05-06T09:14:43.245Z,10.10
2019-05-06T09:16:50.499Z,10.00
2019-05-06T09:18:53.380Z,10.10
2019-05-06T09:20:57.121Z,10.30
2019-05-06T09:23:04.206Z,10.50
2019-05-06T09:25:06.713Z,10.40
2019-05-06T09:27:12.304Z,10.40
2019-05-06T09:29:17.863Z,10.20
2019-05-06T09:31:26.274Z,10.20
2019-05-06T09:33:33.129Z,10.30
2019-05-06T09:35:36.666Z,10.30
2019-05-06T09:37:42.923Z,10.30
2019-05-06T09:39:46.782Z,10.20
2019-05-06T09:41:57.808Z,10.20
2019-05-06T09:43:58.497Z,10.20
2019-05-06T09:46:02.434Z,10.30
2019-05-06T09:48:07.955Z,10.40
2019-05-06T09:50:14.391Z,10.50
2019-05-06T09:52:18.274Z,10.70
2019-05-06T09:54:23.767Z,10.80
2019-05-06T09:56:29.417Z,11.00
2019-05-06T09:58:35.031Z,11.20
2019-05-06T10:00:42.727Z,11.20
2019-05-06T10:02:49.420Z,11.20
2019-05-06T10:04:52.267Z,11.10
2019-05-06T10:06:59.946Z,11.20
2019-05-06T10:09:04.674Z,11.30
2019-05-06T10:11:07.010Z,11.20
2019-05-06T10:13:12.859Z,11.20
2019-05-06T10:15:17.324Z,11.30
2019-05-06T10:17:20.934Z,11.40
2019-05-06T10:19:24.817Z,11.60
2019-05-06T10:21:28.669Z,11.80
2019-05-06T10:23:32.798Z,11.50
2019-05-06T10:25:36.858Z,11.70
2019-05-06T10:27:42.425Z,11.90
2019-05-06T10:29:47.965Z,11.90
2019-05-06T10:31:59.444Z,11.80
2019-05-06T10:34:07.581Z,11.60
2019-05-06T10:36:12.983Z,11.60
2019-05-06T10:38:39.513Z,11.70
2019-05-06T10:40:59.738Z,11.70
2019-05-06T10:43:05.869Z,11.40
2019-05-06T10:45:27.777Z,11.30
2019-05-06T10:47:32.953Z,11.20
2019-05-06T10:49:36.865Z,11.30
2019-05-06T10:51:54.397Z,11.30
2019-05-06T10:53:58.709Z,11.30
2019-05-06T10:56:18.953Z,11.30
2019-05-06T10:58:23.131Z,11.30
2019-05-06T11:00:26.646Z,11.30
2019-05-06T11:02:47.393Z,11.20
2019-05-06T11:04:52.997Z,11.20
2019-05-06T11:06:56.133Z,11.20
2019-05-06T11:09:00.006Z,11.40
2019-05-06T11:11:14.962Z,11.50
2019-05-06T11:13:09.075Z,11.40
2019-05-06T11:15:13.175Z,11.50
2019-05-06T11:17:16.786Z,11.50
2019-05-06T11:19:22.289Z,11.40
2019-05-06T11:21:25.914Z,11.30
2019-05-06T11:23:29.717Z,11.30
2019-05-06T11:25:33.702Z,11.30
2019-05-06T11:27:41.197Z,11.30
2019-05-06T11:29:44.010Z,11.30
2019-05-06T11:32:05.385Z,11.30
2019-05-06T11:34:13.390Z,11.30
2019-05-06T11:36:18.826Z,11.40
2019-05-06T11:38:22.879Z,11.40
2019-05-06T11:40:26.887Z,11.40
2019-05-06T11:42:35.071Z,11.30
2019-05-06T11:44:36.157Z,11.30
2019-05-06T11:46:39.997Z,11.30
2019-05-06T11:48:44.430Z,11.20
2019-05-06T11:50:49.629Z,11.30
2019-05-06T11:52:55.888Z,11.30
2019-05-06T11:54:58.805Z,11.30
2019-05-06T11:57:03.622Z,11.30
2019-05-06T11:59:07.425Z,11.40
2019-05-06T12:01:21.686Z,11.40
2019-05-06T12:03:25.157Z,11.50
2019-05-06T12:05:32.901Z,11.50
2019-05-06T12:07:37.241Z,11.60
2019-05-06T12:09:41.657Z,11.70
2019-05-06T12:11:45.266Z,11.70
2019-05-06T12:13:48.737Z,11.70
2019-05-06T12:15:53.257Z,11.70
2019-05-06T12:17:57.254Z,11.80
2019-05-06T12:20:02.970Z,11.60
2019-05-06T12:22:05.937Z,11.50
2019-05-06T12:24:09.504Z,11.70
2019-05-06T12:26:13.369Z,11.50
2019-05-06T12:28:17.649Z,11.60
2019-05-06T12:30:23.417Z,11.60
2019-05-06T12:32:28.566Z,11.70
2019-05-06T12:34:32.426Z,11.80
2019-05-06T12:36:36.037Z,12.00
2019-05-06T12:38:43.144Z,12.10
2019-05-06T12:40:46.405Z,12.10
2019-05-06T12:42:53.483Z,12.10
2019-05-06T12:44:58.484Z,12.10
2019-05-06T12:47:19.959Z,12.20
2019-05-06T12:49:23.937Z,12.10
2019-05-06T12:51:27.854Z,12.10
2019-05-06T12:53:32.766Z,12.10
2019-05-06T12:55:36.641Z,12.10
2019-05-06T12:57:43.012Z,12.10
2019-05-06T12:59:45.756Z,12.10
2019-05-06T13:01:53.772Z,12.00
2019-05-06T13:03:55.732Z,11.90
2019-05-06T13:05:59.274Z,12.00
2019-05-06T13:08:05.717Z,12.00
2019-05-06T13:10:09.118Z,12.10
2019-05-06T13:12:14.670Z,12.20
2019-05-06T13:14:18.218Z,12.10
2019-05-06T13:16:24.861Z,12.10
2019-05-06T13:18:28.441Z,12.20
2019-05-06T13:20:36.253Z,12.20
2019-05-06T13:22:41.761Z,12.30
2019-05-06T13:24:45.237Z,12.40
2019-05-06T13:26:49.662Z,12.50
2019-05-06T13:28:54.842Z,12.60
2019-05-06T13:31:13.556Z,12.60
2019-05-06T13:33:14.044Z,12.50
2019-05-06T13:35:18.206Z,12.70
2019-05-06T13:37:22.847Z,12.70
2019-05-06T13:39:26.591Z,12.60
2019-05-06T13:41:32.546Z,12.70
2019-05-06T13:43:40.065Z,12.80
2019-05-06T13:45:48.247Z,12.90
2019-05-06T13:47:53.443Z,13.00
2019-05-06T13:49:58.841Z,13.20
2019-05-06T13:52:04.738Z,13.20
2019-05-06T13:54:08.468Z,13.00
2019-05-06T13:56:12.118Z,12.90
2019-05-06T13:58:16.129Z,13.00
2019-05-06T14:00:19.809Z,13.20
2019-05-06T14:02:37.304Z,13.30
2019-05-06T14:04:44.234Z,13.30
2019-05-06T14:06:46.381Z,13.20
2019-05-06T14:08:50.439Z,12.90
2019-05-06T14:10:59.683Z,12.70
2019-05-06T14:13:02.484Z,12.60
2019-05-06T14:15:07.814Z,12.50
2019-05-06T14:17:12.795Z,12.50
2019-05-06T14:19:17.295Z,12.50
2019-05-06T14:21:22.861Z,12.60
2019-05-06T14:23:26.557Z,12.60
2019-05-06T14:25:44.448Z,12.70
2019-05-06T14:27:49.794Z,12.60
2019-05-06T14:30:04.507Z,12.60
2019-05-06T14:32:06.918Z,12.60
2019-05-06T14:34:11.946Z,12.50
2019-05-06T14:36:16.189Z,12.40
2019-05-06T14:38:19.730Z,12.50
2019-05-06T14:40:24.958Z,12.50
2019-05-06T14:42:28.523Z,12.70
2019-05-06T14:44:32.754Z,12.70
2019-05-06T14:46:53.218Z,12.80
2019-05-06T14:48:56.833Z,12.90
2019-05-06T14:51:02.238Z,12.90
2019-05-06T14:53:06.070Z,13.10
2019-05-06T14:55:12.619Z,13.00
2019-05-06T14:57:19.865Z,13.00
2019-05-06T14:59:23.605Z,12.90
2019-05-06T15:01:28.075Z,12.80
2019-05-06T15:03:32.585Z,12.70
2019-05-06T15:05:36.816Z,12.70
2019-05-06T15:07:42.129Z,12.70
2019-05-06T15:10:02.123Z,12.70
2019-05-06T15:11:52.584Z,12.70
2019-05-06T15:13:56.190Z,12.70
2019-05-06T15:15:59.666Z,12.70
2019-05-06T15:18:03.570Z,12.60
2019-05-06T15:20:08.465Z,12.60
2019-05-06T15:22:12.945Z,12.70
2019-05-06T15:24:16.846Z,12.60
2019-05-06T15:26:22.388Z,12.60
2019-05-06T15:28:25.680Z,12.50
2019-05-06T15:30:34.117Z,12.50
2019-05-06T15:32:38.730Z,12.50
2019-05-06T15:34:53.806Z,12.40
2019-05-06T15:37:02.375Z,12.40
2019-05-06T15:39:05.672Z,12.40
2019-05-06T15:41:09.631Z,12.40
2019-05-06T15:43:13.329Z,12.40
2019-05-06T15:45:18.353Z,12.40
2019-05-06T15:47:23.286Z,12.40
2019-05-06T15:49:27.221Z,12.50
2019-05-06T15:51:36.944Z,12.40
2019-05-06T15:53:42.193Z,12.30
2019-05-06T15:55:46.191Z,12.50
2019-05-06T15:57:52.444Z,12.40
2019-05-06T15:59:55.381Z,12.40
2019-05-06T16:01:59.249Z,12.30
2019-05-06T16:04:03.253Z,12.30
2019-05-06T16:06:07.010Z,12.30
2019-05-06T16:08:10.839Z,12.20
2019-05-06T16:10:16.991Z,12.20
2019-05-06T16:12:22.095Z,12.20
2019-05-06T16:14:26.043Z,12.10
2019-05-06T16:16:29.569Z,12.10
2019-05-06T16:18:34.433Z,12.10
2019-05-06T16:20:38.237Z,12.00
2019-05-06T16:22:44.504Z,12.00
2019-05-06T16:24:49.909Z,12.00
2019-05-06T16:26:53.489Z,12.00
2019-05-06T16:28:57.458Z,11.90
2019-05-06T16:31:02.465Z,11.90
2019-05-06T16:33:06.108Z,11.90
2019-05-06T16:35:11.967Z,11.90
2019-05-06T16:37:16.522Z,11.90
2019-05-06T16:39:20.213Z,11.90
2019-05-06T16:41:23.754Z,11.90
2019-05-06T16:43:27.481Z,11.80
2019-05-06T16:45:32.051Z,11.70
2019-05-06T16:47:39.557Z,11.70
2019-05-06T16:49:43.409Z,11.70
2019-05-06T16:51:47.777Z,11.70
2019-05-06T16:53:52.487Z,11.60
2019-05-06T16:56:10.145Z,11.60
2019-05-06T16:58:15.323Z,11.60
2019-05-06T17:00:22.524Z,11.50
2019-05-06T17:02:27.767Z,11.50
2019-05-06T17:04:48.485Z,11.50
2019-05-06T17:06:53.621Z,11.40
2019-05-06T17:08:57.558Z,11.40
2019-05-06T17:11:04.421Z,11.30
2019-05-06T17:13:07.006Z,11.30
2019-05-06T17:15:11.085Z,11.30
2019-05-06T17:17:14.718Z,11.20
2019-05-06T17:19:18.301Z,11.20
2019-05-06T17:21:22.340Z,11.20
2019-05-06T17:23:26.433Z,11.20
2019-05-06T17:25:30.049Z,11.10
2019-05-06T17:27:35.087Z,11.10
2019-05-06T17:29:43.026Z,11.10
2019-05-06T17:31:51.542Z,11.00
2019-05-06T17:33:56.986Z,10.90
2019-05-06T17:36:02.931Z,11.00
2019-05-06T17:38:08.141Z,10.90
2019-05-06T17:40:14.298Z,10.90
2019-05-06T17:42:18.232Z,10.90
2019-05-06T17:44:23.697Z,10.90
2019-05-06T17:46:45.831Z,10.80
2019-05-06T17:48:54.427Z,10.80
2019-05-06T17:51:17.891Z,10.80
2019-05-06T17:53:22.894Z,10.70
2019-05-06T17:55:27.589Z,10.70
2019-05-06T17:57:33.110Z,10.70
2019-05-06T17:59:37.770Z,10.60
2019-05-06T18:01:43.481Z,10.60
2019-05-06T18:03:48.090Z,10.50
2019-05-06T18:05:52.630Z,10.50
2019-05-06T18:07:56.217Z,10.50
2019-05-06T18:10:00.020Z,10.50
2019-05-06T18:12:03.998Z,10.40
2019-05-06T18:14:08.078Z,10.40
2019-05-06T18:16:13.212Z,10.40
2019-05-06T18:18:17.249Z,10.40
2019-05-06T18:20:22.154Z,10.40
2019-05-06T18:22:25.732Z,10.40
2019-05-06T18:24:29.285Z,10.40
2019-05-06T18:26:33.707Z,10.40
2019-05-06T18:28:37.418Z,10.40
2019-05-06T18:30:41.321Z,10.30
2019-05-06T18:32:44.789Z,10.30
2019-05-06T18:34:48.337Z,10.30
2019-05-06T18:36:52.599Z,10.30
2019-05-06T18:38:57.090Z,10.30
2019-05-06T18:41:02.018Z,10.20
2019-05-06T18:43:07.596Z,10.20
2019-05-06T18:45:12.372Z,10.10
2019-05-06T18:47:16.252Z,10.10
2019-05-06T18:49:21.728Z,10.10
2019-05-06T18:51:26.205Z,10.10
2019-05-06T18:53:29.811Z,10.10
2019-05-06T18:55:33.763Z,10.10
2019-05-06T18:57:37.550Z,10.10
2019-05-06T18:59:42.448Z,10.00
2019-05-06T19:01:46.407Z,10.00
2019-05-06T19:04:03.273Z,10.00
2019-05-06T19:06:07.302Z,10.00
2019-05-06T19:08:24.726Z,9.90
2019-05-06T19:10:30.054Z,9.90
2019-05-06T19:12:40.522Z,9.90
2019-05-06T19:14:39.773Z,9.90
2019-05-06T19:16:49.786Z,9.80
2019-05-06T19:18:48.613Z,9.80
2019-05-06T19:20:53.129Z,9.80
2019-05-06T19:22:57.213Z,9.80
2019-05-06T19:25:02.630Z,9.70
2019-05-06T19:27:07.137Z,9.80
2019-05-06T19:29:12.317Z,9.70
2019-05-06T19:31:16.193Z,9.70
2019-05-06T19:33:19.809Z,9.70
2019-05-06T19:35:23.695Z,9.70
2019-05-06T19:37:27.937Z,9.70
2019-05-06T19:39:33.027Z,9.60
2019-05-06T19:41:38.566Z,9.70
2019-05-06T19:43:42.235Z,9.60
2019-05-06T19:45:46.099Z,9.60
2019-05-06T19:47:52.257Z,9.60
2019-05-06T19:49:56.185Z,9.60
2019-05-06T19:51:59.797Z,9.50
2019-05-06T19:54:03.480Z,9.50
2019-05-06T19:56:07.191Z,9.50
2019-05-06T19:58:12.890Z,9.50
2019-05-06T20:00:17.237Z,9.40
2019-05-06T20:02:23.456Z,9.40
2019-05-06T20:04:26.576Z,9.40
2019-05-06T20:06:34.777Z,9.40
2019-05-06T20:08:41.714Z,9.40
2019-05-06T20:10:52.852Z,9.40
2019-05-06T20:13:02.614Z,9.30
2019-05-06T20:15:26.258Z,9.30
2019-05-06T20:17:30.132Z,9.30
2019-05-06T20:19:34.550Z,9.30
2019-05-06T20:21:38.461Z,9.20
2019-05-06T20:23:42.577Z,9.20
2019-05-06T20:25:46.230Z,9.20
2019-05-06T20:27:52.503Z,9.20
2019-05-06T20:29:55.393Z,9.20
2019-05-06T20:31:59.902Z,9.10
2019-05-06T20:34:03.730Z,9.10
2019-05-06T20:36:07.358Z,9.10
2019-05-06T20:38:12.308Z,9.10
2019-05-06T20:40:16.590Z,9.10
2019-05-06T20:42:22.256Z,9.10
2019-05-06T20:44:25.817Z,9.00
2019-05-06T20:46:29.569Z,9.00
2019-05-06T20:48:33.123Z,9.00
2019-05-06T20:50:37.012Z,9.00
2019-05-06T20:52:42.467Z,9.00
2019-05-06T20:54:46.141Z,8.90
2019-05-06T20:56:49.793Z,8.90
2019-05-06T20:58:53.262Z,8.90
2019-05-06T21:00:57.047Z,8.90
2019-05-06T21:03:00.954Z,8.80
2019-05-06T21:05:10.656Z,8.80
2019-05-06T21:07:13.519Z,8.80
2019-05-06T21:09:17.062Z,8.80
2019-05-06T21:11:26.521Z,8.80
2019-05-06T21:13:31.445Z,8.80
2019-05-06T21:15:32.377Z,8.70
2019-05-06T21:17:36.303Z,8.70
2019-05-06T21:19:39.856Z,8.70
2019-05-06T21:21:43.671Z,8.70
2019-05-06T21:23:48.271Z,8.70
2019-05-06T21:25:52.456Z,8.60
2019-05-06T21:27:56.150Z,8.60
2019-05-06T21:29:59.684Z,8.60
2019-05-06T21:32:03.145Z,8.50
2019-05-06T21:34:07.002Z,8.50
2019-05-06T21:36:12.401Z,8.50
2019-05-06T21:38:15.742Z,8.50
2019-05-06T21:40:19.569Z,8.40
2019-05-06T21:42:24.112Z,8.40
2019-05-06T21:44:27.802Z,8.40
2019-05-06T21:46:31.930Z,8.30
2019-05-06T21:48:35.582Z,8.30
2019-05-06T21:50:39.205Z,8.30
2019-05-06T21:52:43.273Z,8.20
2019-05-06T21:54:47.029Z,8.20
2019-05-06T21:56:50.488Z,8.10
2019-05-06T21:58:54.267Z,8.10
2019-05-06T22:01:02.139Z,8.10
2019-05-06T22:03:05.633Z,8.10
2019-05-06T22:05:09.513Z,8.10
2019-05-06T22:07:13.471Z,8.10
2019-05-06T22:09:17.176Z,8.00
2019-05-06T22:11:24.288Z,8.00
2019-05-06T22:13:25.919Z,8.00
2019-05-06T22:15:29.428Z,7.90
2019-05-06T22:17:32.957Z,8.00
2019-05-06T22:19:36.902Z,8.00
2019-05-06T22:21:42.594Z,7.90
2019-05-06T22:24:04.236Z,7.90
2019-05-06T22:26:12.976Z,7.90
2019-05-06T22:28:11.994Z,7.80
2019-05-06T22:30:15.965Z,7.80
2019-05-06T22:32:19.431Z,7.70
2019-05-06T22:34:23.277Z,7.70
2019-05-06T22:36:27.285Z,7.60
2019-05-06T22:38:30.813Z,7.60
2019-05-06T22:40:34.686Z,7.60
2019-05-06T22:42:38.590Z,7.50
2019-05-06T22:44:42.894Z,7.50
2019-05-06T22:46:47.118Z,7.50
2019-05-06T22:48:54.077Z,7.40
2019-05-06T22:50:56.757Z,7.30
2019-05-06T22:53:02.326Z,7.30
2019-05-06T22:55:07.248Z,7.30
2019-05-06T22:57:12.036Z,7.20
2019-05-06T22:59:15.689Z,7.20
2019-05-06T23:01:33.089Z,7.10
2019-05-06T23:03:36.873Z,7.10
2019-05-06T23:05:42.339Z,7.00
2019-05-06T23:07:45.757Z,6.90
2019-05-06T23:09:49.219Z,6.90
2019-05-06T23:11:53.329Z,6.80
2019-05-06T23:13:56.897Z,6.70
2019-05-06T23:16:02.036Z,6.60
2019-05-06T23:18:05.923Z,6.50
2019-05-06T23:20:09.777Z,6.40
2019-05-06T23:22:13.709Z,6.30
2019-05-06T23:24:17.573Z,6.30
2019-05-06T23:26:22.990Z,6.10
2019-05-06T23:28:26.521Z,6.00
2019-05-06T23:30:33.256Z,5.90
2019-05-06T23:32:36.231Z,5.80
2019-05-06T23:34:39.690Z,5.70
2019-05-06T23:37:02.741Z,5.60
2019-05-06T23:39:45.353Z,5.50
2019-05-06T23:42:25.761Z,5.40
2019-05-06T23:45:05.874Z,5.30
2019-05-06T23:47:45.921Z,5.10
2019-05-06T23:50:26.384Z,5.00
2019-05-06T23:53:06.505Z,5.00
2019-05-06T23:55:46.497Z,4.90
2019-05-06T23:57:49.317Z,4.70
2019-05-06T23:59:54.626Z,4.70
